sensor_id;sensor_type;location;lat;lon;timestamp;temperature;humidity
9941;DHT22;5009;50.656;7.188;2023-07-13T04:02:40;16.10;99.90
9941;DHT22;5009;50.656;7.188;2023-07-13T04:05:06;16.10;99.90
9941;DHT22;5009;50.656;7.188;2023-07-13T04:07:32;16.20;99.90
9941;DHT22;5009;50.656;7.188;2023-07-13T04:09:57;16.30;99.90
9941;DHT22;5009;50.656;7.188;2023-07-13T04:12:23;16.30;99.90
9941;DHT22;5009;50.656;7.188;2023-07-13T04:14:48;16.50;99.90
9941;DHT22;5009;50.656;7.188;2023-07-13T04:17:14;16.50;99.90
9941;DHT22;5009;50.656;7.188;2023-07-13T04:19:39;16.60;99.90
9941;DHT22;5009;50.656;7.188;2023-07-13T04:22:05;16.60;99.90
9941;DHT22;5009;50.656;7.188;2023-07-13T04:24:30;16.80;99.90
9941;DHT22;5009;50.656;7.188;2023-07-13T04:26:56;16.80;99.90
9941;DHT22;5009;50.656;7.188;2023-07-13T04:29:24;16.90;99.90
9941;DHT22;5009;50.656;7.188;2023-07-13T04:31:50;17.00;99.80
9941;DHT22;5009;50.656;7.188;2023-07-13T04:34:15;17.10;99.40
9941;DHT22;5009;50.656;7.188;2023-07-13T04:36:42;17.20;99.10
9941;DHT22;5009;50.656;7.188;2023-07-13T04:39:07;17.40;98.80
9941;DHT22;5009;50.656;7.188;2023-07-13T04:41:34;17.70;98.50
9941;DHT22;5009;50.656;7.188;2023-07-13T04:43:59;17.80;98.00
9941;DHT22;5009;50.656;7.188;2023-07-13T04:46:25;18.00;97.60
9941;DHT22;5009;50.656;7.188;2023-07-13T04:48:50;18.10;95.90
9941;DHT22;5009;50.656;7.188;2023-07-13T04:51:18;18.10;94.90
9941;DHT22;5009;50.656;7.188;2023-07-13T04:53:44;18.20;94.20
9941;DHT22;5009;50.656;7.188;2023-07-13T04:56:09;18.50;93.60
9941;DHT22;5009;50.656;7.188;2023-07-13T04:58:35;18.70;93.40
9941;DHT22;5009;50.656;7.188;2023-07-13T05:01:05;19.00;92.60
9941;DHT22;5009;50.656;7.188;2023-07-13T05:03:31;19.20;91.70
9941;DHT22;5009;50.656;7.188;2023-07-13T05:05:59;19.50;91.20
9941;DHT22;5009;50.656;7.188;2023-07-13T05:08:25;19.60;90.60
9941;DHT22;5009;50.656;7.188;2023-07-13T05:10:51;19.70;90.10
9941;DHT22;5009;50.656;7.188;2023-07-13T05:13:18;19.90;90.20
9941;DHT22;5009;50.656;7.188;2023-07-13T05:15:43;20.40;89.10
9941;DHT22;5009;50.656;7.188;2023-07-13T05:18:09;21.00;87.40
9941;DHT22;5009;50.656;7.188;2023-07-13T05:20:34;21.40;83.70
9941;DHT22;5009;50.656;7.188;2023-07-13T05:23:00;21.80;82.30
9941;DHT22;5009;50.656;7.188;2023-07-13T05:25:26;22.30;81.80
9941;DHT22;5009;50.656;7.188;2023-07-13T05:27:51;22.60;79.20
9941;DHT22;5009;50.656;7.188;2023-07-13T05:30:17;23.00;78.30
9941;DHT22;5009;50.656;7.188;2023-07-13T05:32:42;22.90;76.00
9941;DHT22;5009;50.656;7.188;2023-07-13T05:35:08;23.20;75.70
9941;DHT22;5009;50.656;7.188;2023-07-13T05:37:34;22.90;75.50
9941;DHT22;5009;50.656;7.188;2023-07-13T05:40:00;22.80;75.70
9941;DHT22;5009;50.656;7.188;2023-07-13T05:42:25;22.60;76.50
9941;DHT22;5009;50.656;7.188;2023-07-13T05:44:51;22.30;76.40
9941;DHT22;5009;50.656;7.188;2023-07-13T05:47:17;21.80;77.50
9941;DHT22;5009;50.656;7.188;2023-07-13T05:49:42;21.60;78.10
9941;DHT22;5009;50.656;7.188;2023-07-13T05:52:08;21.70;79.40
9941;DHT22;5009;50.656;7.188;2023-07-13T05:54:33;21.50;79.80
9941;DHT22;5009;50.656;7.188;2023-07-13T05:56:59;21.70;79.40
9941;DHT22;5009;50.656;7.188;2023-07-13T05:59:25;22.00;80.00
9941;DHT22;5009;50.656;7.188;2023-07-13T06:01:51;23.90;78.30
9941;DHT22;5009;50.656;7.188;2023-07-13T06:04:18;25.10;72.60
9941;DHT22;5009;50.656;7.188;2023-07-13T06:06:43;26.00;68.80
9941;DHT22;5009;50.656;7.188;2023-07-13T06:09:09;26.00;65.80
9941;DHT22;5009;50.656;7.188;2023-07-13T06:11:34;25.80;65.90
9941;DHT22;5009;50.656;7.188;2023-07-13T06:14:00;24.90;65.60
9941;DHT22;5009;50.656;7.188;2023-07-13T06:16:26;25.20;67.30
9941;DHT22;5009;50.656;7.188;2023-07-13T06:18:51;26.10;65.30
9941;DHT22;5009;50.656;7.188;2023-07-13T06:21:19;27.20;62.60
9941;DHT22;5009;50.656;7.188;2023-07-13T06:23:46;28.50;59.90
9941;DHT22;5009;50.656;7.188;2023-07-13T06:26:16;29.60;57.70
9941;DHT22;5009;50.656;7.188;2023-07-13T06:28:42;30.40;55.90
9941;DHT22;5009;50.656;7.188;2023-07-13T06:31:09;30.60;54.40
9941;DHT22;5009;50.656;7.188;2023-07-13T06:33:35;30.30;53.20
9941;DHT22;5009;50.656;7.188;2023-07-13T06:36:02;30.70;52.90
9941;DHT22;5009;50.656;7.188;2023-07-13T06:38:28;31.10;51.80
9941;DHT22;5009;50.656;7.188;2023-07-13T06:40:54;31.20;51.70
9941;DHT22;5009;50.656;7.188;2023-07-13T06:43:19;31.30;50.90
9941;DHT22;5009;50.656;7.188;2023-07-13T06:45:47;31.80;50.50
9941;DHT22;5009;50.656;7.188;2023-07-13T06:48:15;32.70;49.50
9941;DHT22;5009;50.656;7.188;2023-07-13T06:50:42;33.80;48.90
9941;DHT22;5009;50.656;7.188;2023-07-13T06:53:08;34.70;47.40
9941;DHT22;5009;50.656;7.188;2023-07-13T06:55:34;35.60;46.30
9941;DHT22;5009;50.656;7.188;2023-07-13T06:57:59;35.90;44.60
9941;DHT22;5009;50.656;7.188;2023-07-13T07:00:25;36.10;43.40
9941;DHT22;5009;50.656;7.188;2023-07-13T07:02:50;36.00;43.30
9941;DHT22;5009;50.656;7.188;2023-07-13T07:05:16;35.70;43.20
9941;DHT22;5009;50.656;7.188;2023-07-13T07:07:41;35.80;42.90
9941;DHT22;5009;50.656;7.188;2023-07-13T07:10:07;35.80;42.60
9941;DHT22;5009;50.656;7.188;2023-07-13T07:12:33;35.70;42.10
9941;DHT22;5009;50.656;7.188;2023-07-13T07:14:58;35.80;42.30
9941;DHT22;5009;50.656;7.188;2023-07-13T07:17:24;36.10;42.00
9941;DHT22;5009;50.656;7.188;2023-07-13T07:19:51;36.60;41.80
9941;DHT22;5009;50.656;7.188;2023-07-13T07:22:19;36.90;41.80
9941;DHT22;5009;50.656;7.188;2023-07-13T07:24:45;37.30;41.40
9941;DHT22;5009;50.656;7.188;2023-07-13T07:27:11;37.70;40.70
9941;DHT22;5009;50.656;7.188;2023-07-13T07:29:36;38.00;39.90
9941;DHT22;5009;50.656;7.188;2023-07-13T07:32:02;37.90;39.60
9941;DHT22;5009;50.656;7.188;2023-07-13T07:34:27;37.30;39.30
9941;DHT22;5009;50.656;7.188;2023-07-13T07:36:53;36.30;39.40
9941;DHT22;5009;50.656;7.188;2023-07-13T07:39:19;36.20;40.30
9941;DHT22;5009;50.656;7.188;2023-07-13T07:41:45;36.60;40.10
9941;DHT22;5009;50.656;7.188;2023-07-13T07:44:10;36.20;39.60
9941;DHT22;5009;50.656;7.188;2023-07-13T07:46:36;35.50;39.90
9941;DHT22;5009;50.656;7.188;2023-07-13T07:49:01;35.10;40.40
9941;DHT22;5009;50.656;7.188;2023-07-13T07:51:27;35.60;40.40
9941;DHT22;5009;50.656;7.188;2023-07-13T07:53:53;35.40;39.90
9941;DHT22;5009;50.656;7.188;2023-07-13T07:56:18;34.90;39.90
9941;DHT22;5009;50.656;7.188;2023-07-13T07:58:44;34.50;39.50
9941;DHT22;5009;50.656;7.188;2023-07-13T08:01:09;34.30;40.30
9941;DHT22;5009;50.656;7.188;2023-07-13T08:03:35;33.80;40.70
9941;DHT22;5009;50.656;7.188;2023-07-13T08:06:01;33.40;40.90
9941;DHT22;5009;50.656;7.188;2023-07-13T08:08:27;32.60;41.00
9941;DHT22;5009;50.656;7.188;2023-07-13T08:10:53;31.90;41.50
9941;DHT22;5009;50.656;7.188;2023-07-13T08:13:18;31.30;42.20
9941;DHT22;5009;50.656;7.188;2023-07-13T08:15:44;31.00;42.70
9941;DHT22;5009;50.656;7.188;2023-07-13T08:18:10;30.80;42.80
9941;DHT22;5009;50.656;7.188;2023-07-13T08:20:39;30.40;42.60
9941;DHT22;5009;50.656;7.188;2023-07-13T08:23:05;30.40;43.10
9941;DHT22;5009;50.656;7.188;2023-07-13T08:25:30;30.60;43.90
9941;DHT22;5009;50.656;7.188;2023-07-13T08:27:56;30.90;44.20
9941;DHT22;5009;50.656;7.188;2023-07-13T08:30:21;31.10;43.40
9941;DHT22;5009;50.656;7.188;2023-07-13T08:32:47;31.10;43.40
9941;DHT22;5009;50.656;7.188;2023-07-13T08:35:12;31.10;43.30
9941;DHT22;5009;50.656;7.188;2023-07-13T08:37:39;31.40;43.60
9941;DHT22;5009;50.656;7.188;2023-07-13T08:40:05;31.70;43.40
9941;DHT22;5009;50.656;7.188;2023-07-13T08:47:33;31.70;42.90
9941;DHT22;5009;50.656;7.188;2023-07-13T08:50:01;31.80;42.90
9941;DHT22;5009;50.656;7.188;2023-07-13T08:54:57;31.70;43.30
9941;DHT22;5009;50.656;7.188;2023-07-13T08:57:31;31.70;42.80
9941;DHT22;5009;50.656;7.188;2023-07-13T08:59:57;31.60;42.70
9941;DHT22;5009;50.656;7.188;2023-07-13T09:05:02;31.40;42.70
9941;DHT22;5009;50.656;7.188;2023-07-13T09:10:35;31.40;42.80
9941;DHT22;5009;50.656;7.188;2023-07-13T09:15:52;30.80;42.50
9941;DHT22;5009;50.656;7.188;2023-07-13T09:18:28;30.80;42.90
9941;DHT22;5009;50.656;7.188;2023-07-13T09:20:56;30.70;42.60
9941;DHT22;5009;50.656;7.188;2023-07-13T09:23:24;30.80;42.90
9941;DHT22;5009;50.656;7.188;2023-07-13T09:25:54;30.80;42.40
9941;DHT22;5009;50.656;7.188;2023-07-13T09:28:29;30.80;42.90
9941;DHT22;5009;50.656;7.188;2023-07-13T09:33:27;30.50;42.50
9941;DHT22;5009;50.656;7.188;2023-07-13T09:35:55;30.30;42.40
9941;DHT22;5009;50.656;7.188;2023-07-13T09:38:25;30.20;42.80
9941;DHT22;5009;50.656;7.188;2023-07-13T09:44:15;29.90;42.40
9941;DHT22;5009;50.656;7.188;2023-07-13T09:46:46;29.80;43.10
9941;DHT22;5009;50.656;7.188;2023-07-13T09:49:13;29.40;43.00
9941;DHT22;5009;50.656;7.188;2023-07-13T09:51:41;29.30;42.80
9941;DHT22;5009;50.656;7.188;2023-07-13T09:54:21;28.90;42.50
9941;DHT22;5009;50.656;7.188;2023-07-13T09:56:57;28.90;42.90
9941;DHT22;5009;50.656;7.188;2023-07-13T09:59:26;28.80;43.30
9941;DHT22;5009;50.656;7.188;2023-07-13T10:01:52;28.70;43.60
9941;DHT22;5009;50.656;7.188;2023-07-13T10:04:19;28.60;43.40
9941;DHT22;5009;50.656;7.188;2023-07-13T10:06:46;28.50;43.80
9941;DHT22;5009;50.656;7.188;2023-07-13T10:09:17;28.50;44.30
9941;DHT22;5009;50.656;7.188;2023-07-13T10:11:44;28.70;43.70
9941;DHT22;5009;50.656;7.188;2023-07-13T10:14:18;28.70;43.30
9941;DHT22;5009;50.656;7.188;2023-07-13T10:16:46;28.70;43.60
9941;DHT22;5009;50.656;7.188;2023-07-13T10:19:19;28.60;43.00
9941;DHT22;5009;50.656;7.188;2023-07-13T10:21:59;28.30;42.80
9941;DHT22;5009;50.656;7.188;2023-07-13T10:24:29;28.10;43.40
9941;DHT22;5009;50.656;7.188;2023-07-13T10:27:29;28.00;43.10
9941;DHT22;5009;50.656;7.188;2023-07-13T10:30:09;27.80;43.20
9941;DHT22;5009;50.656;7.188;2023-07-13T10:32:36;27.70;43.60
9941;DHT22;5009;50.656;7.188;2023-07-13T10:35:03;27.60;43.80
9941;DHT22;5009;50.656;7.188;2023-07-13T10:40:40;27.80;43.70
9941;DHT22;5009;50.656;7.188;2023-07-13T10:43:22;28.00;44.00
9941;DHT22;5009;50.656;7.188;2023-07-13T10:45:49;28.00;43.50
9941;DHT22;5009;50.656;7.188;2023-07-13T10:48:17;28.00;43.20
9941;DHT22;5009;50.656;7.188;2023-07-13T10:50:45;28.00;43.70
9941;DHT22;5009;50.656;7.188;2023-07-13T10:53:28;27.90;43.40
9941;DHT22;5009;50.656;7.188;2023-07-13T10:56:03;27.90;43.00
9941;DHT22;5009;50.656;7.188;2023-07-13T10:58:42;27.90;43.40
9941;DHT22;5009;50.656;7.188;2023-07-13T11:01:14;28.10;43.90
9941;DHT22;5009;50.656;7.188;2023-07-13T11:11:32;27.60;43.40
9941;DHT22;5009;50.656;7.188;2023-07-13T11:14:01;27.60;43.10
9941;DHT22;5009;50.656;7.188;2023-07-13T11:16:46;27.50;43.10
9941;DHT22;5009;50.656;7.188;2023-07-13T11:24:29;27.50;42.90
9941;DHT22;5009;50.656;7.188;2023-07-13T11:26:56;27.50;43.30
9941;DHT22;5009;50.656;7.188;2023-07-13T11:29:38;27.50;43.50
9941;DHT22;5009;50.656;7.188;2023-07-13T11:32:25;27.50;43.90
9941;DHT22;5009;50.656;7.188;2023-07-13T11:34:55;27.60;44.00
9941;DHT22;5009;50.656;7.188;2023-07-13T11:37:21;27.60;43.80
9941;DHT22;5009;50.656;7.188;2023-07-13T11:39:50;27.50;43.70
9941;DHT22;5009;50.656;7.188;2023-07-13T11:42:18;27.50;43.60
9941;DHT22;5009;50.656;7.188;2023-07-13T11:44:48;27.40;43.70
9941;DHT22;5009;50.656;7.188;2023-07-13T11:47:19;27.30;44.00
9941;DHT22;5009;50.656;7.188;2023-07-13T11:49:54;27.40;44.30
9941;DHT22;5009;50.656;7.188;2023-07-13T11:52:36;27.20;44.00
9941;DHT22;5009;50.656;7.188;2023-07-13T11:55:04;27.30;44.50
9941;DHT22;5009;50.656;7.188;2023-07-13T11:57:44;27.20;44.20
9941;DHT22;5009;50.656;7.188;2023-07-13T12:00:14;27.20;44.50
9941;DHT22;5009;50.656;7.188;2023-07-13T12:02:50;27.20;44.50
9941;DHT22;5009;50.656;7.188;2023-07-13T12:05:18;27.30;44.60
9941;DHT22;5009;50.656;7.188;2023-07-13T12:07:44;27.30;44.60
9941;DHT22;5009;50.656;7.188;2023-07-13T12:10:25;27.40;44.60
9941;DHT22;5009;50.656;7.188;2023-07-13T12:12:57;27.50;44.60
9941;DHT22;5009;50.656;7.188;2023-07-13T12:15:43;27.50;44.30
9941;DHT22;5009;50.656;7.188;2023-07-13T12:18:22;27.50;44.50
9941;DHT22;5009;50.656;7.188;2023-07-13T12:20:50;27.40;44.60
9941;DHT22;5009;50.656;7.188;2023-07-13T12:23:25;27.30;44.60
9941;DHT22;5009;50.656;7.188;2023-07-13T12:25:52;27.20;45.00
9941;DHT22;5009;50.656;7.188;2023-07-13T12:28:39;27.20;45.20
9941;DHT22;5009;50.656;7.188;2023-07-13T12:31:34;27.10;45.10
9941;DHT22;5009;50.656;7.188;2023-07-13T12:34:02;27.00;45.00
9941;DHT22;5009;50.656;7.188;2023-07-13T12:36:33;26.90;45.40
9941;DHT22;5009;50.656;7.188;2023-07-13T12:39:04;26.80;45.00
9941;DHT22;5009;50.656;7.188;2023-07-13T12:41:35;26.80;44.70
9941;DHT22;5009;50.656;7.188;2023-07-13T12:44:00;26.80;44.70
9941;DHT22;5009;50.656;7.188;2023-07-13T12:46:26;26.80;44.20
9941;DHT22;5009;50.656;7.188;2023-07-13T12:48:54;26.80;44.30
9941;DHT22;5009;50.656;7.188;2023-07-13T12:51:25;26.70;44.50
9941;DHT22;5009;50.656;7.188;2023-07-13T12:53:57;26.60;44.60
9941;DHT22;5009;50.656;7.188;2023-07-13T12:56:26;26.60;45.00
9941;DHT22;5009;50.656;7.188;2023-07-13T12:59:00;26.60;45.40
9941;DHT22;5009;50.656;7.188;2023-07-13T13:01:28;26.60;45.70
9941;DHT22;5009;50.656;7.188;2023-07-13T13:03:55;26.50;45.60
9941;DHT22;5009;50.656;7.188;2023-07-13T13:06:29;26.60;45.70
9941;DHT22;5009;50.656;7.188;2023-07-13T13:08:57;26.70;46.30
9941;DHT22;5009;50.656;7.188;2023-07-13T13:11:29;26.70;46.20
9941;DHT22;5009;50.656;7.188;2023-07-13T13:13:55;26.70;46.30
9941;DHT22;5009;50.656;7.188;2023-07-13T13:16:30;26.80;46.80
9941;DHT22;5009;50.656;7.188;2023-07-13T13:19:17;26.80;46.60
9941;DHT22;5009;50.656;7.188;2023-07-13T13:21:44;26.80;46.50
9941;DHT22;5009;50.656;7.188;2023-07-13T13:24:15;26.90;46.90
9941;DHT22;5009;50.656;7.188;2023-07-13T13:26:43;26.80;46.50
9941;DHT22;5009;50.656;7.188;2023-07-13T13:29:20;26.80;46.70
9941;DHT22;5009;50.656;7.188;2023-07-13T13:31:46;26.90;46.70
9941;DHT22;5009;50.656;7.188;2023-07-13T13:34:17;26.80;46.30
9941;DHT22;5009;50.656;7.188;2023-07-13T13:36:43;26.80;46.40
9941;DHT22;5009;50.656;7.188;2023-07-13T13:39:19;26.90;46.10
9941;DHT22;5009;50.656;7.188;2023-07-13T13:41:45;26.90;46.00
9941;DHT22;5009;50.656;7.188;2023-07-13T13:44:14;26.80;46.30
9941;DHT22;5009;50.656;7.188;2023-07-13T13:46:40;26.70;46.20
9941;DHT22;5009;50.656;7.188;2023-07-13T13:49:13;26.70;46.30
9941;DHT22;5009;50.656;7.188;2023-07-13T13:51:39;26.70;46.30
9941;DHT22;5009;50.656;7.188;2023-07-13T13:54:08;26.70;46.40
9941;DHT22;5009;50.656;7.188;2023-07-13T13:56:34;26.70;46.30
9941;DHT22;5009;50.656;7.188;2023-07-13T13:59:00;26.80;46.50
9941;DHT22;5009;50.656;7.188;2023-07-13T14:01:25;26.70;46.10
9941;DHT22;5009;50.656;7.188;2023-07-13T14:03:51;26.70;46.00
9941;DHT22;5009;50.656;7.188;2023-07-13T14:06:17;26.70;45.90
9941;DHT22;5009;50.656;7.188;2023-07-13T14:08:43;26.80;45.90
9941;DHT22;5009;50.656;7.188;2023-07-13T14:11:13;26.80;45.90
9941;DHT22;5009;50.656;7.188;2023-07-13T14:13:43;26.80;45.90
9941;DHT22;5009;50.656;7.188;2023-07-13T14:16:17;26.80;46.30
9941;DHT22;5009;50.656;7.188;2023-07-13T14:18:44;26.90;46.70
9941;DHT22;5009;50.656;7.188;2023-07-13T14:21:18;26.90;46.40
9941;DHT22;5009;50.656;7.188;2023-07-13T14:23:45;26.90;46.60
9941;DHT22;5009;50.656;7.188;2023-07-13T14:26:14;26.90;46.40
9941;DHT22;5009;50.656;7.188;2023-07-13T14:28:45;26.80;46.20
9941;DHT22;5009;50.656;7.188;2023-07-13T14:31:13;26.80;46.40
9941;DHT22;5009;50.656;7.188;2023-07-13T14:33:39;26.80;46.50
9941;DHT22;5009;50.656;7.188;2023-07-13T14:36:34;26.70;46.40
9941;DHT22;5009;50.656;7.188;2023-07-13T14:39:16;26.80;46.60
9941;DHT22;5009;50.656;7.188;2023-07-13T14:41:43;26.80;46.20
9941;DHT22;5009;50.656;7.188;2023-07-13T14:44:16;26.80;46.20
9941;DHT22;5009;50.656;7.188;2023-07-13T14:46:43;26.70;45.80
9941;DHT22;5009;50.656;7.188;2023-07-13T14:49:35;26.60;45.40
9941;DHT22;5009;50.656;7.188;2023-07-13T14:52:10;26.70;45.60
9941;DHT22;5009;50.656;7.188;2023-07-13T14:54:36;26.70;45.80
9941;DHT22;5009;50.656;7.188;2023-07-13T14:57:09;26.60;45.80
9941;DHT22;5009;50.656;7.188;2023-07-13T14:59:35;26.60;46.20
9941;DHT22;5009;50.656;7.188;2023-07-13T15:02:01;26.40;46.10
9941;DHT22;5009;50.656;7.188;2023-07-13T15:04:27;26.40;46.00
9941;DHT22;5009;50.656;7.188;2023-07-13T15:06:59;26.40;45.70
9941;DHT22;5009;50.656;7.188;2023-07-13T15:09:26;26.40;46.20
9941;DHT22;5009;50.656;7.188;2023-07-13T15:11:55;26.20;46.50
9941;DHT22;5009;50.656;7.188;2023-07-13T15:14:22;26.20;46.60
9941;DHT22;5009;50.656;7.188;2023-07-13T15:16:51;26.30;46.60
9941;DHT22;5009;50.656;7.188;2023-07-13T15:19:18;26.20;46.70
9941;DHT22;5009;50.656;7.188;2023-07-13T15:21:44;26.20;46.80
9941;DHT22;5009;50.656;7.188;2023-07-13T15:24:10;26.20;46.90
9941;DHT22;5009;50.656;7.188;2023-07-13T15:26:36;26.30;46.90
9941;DHT22;5009;50.656;7.188;2023-07-13T15:29:03;26.40;46.90
9941;DHT22;5009;50.656;7.188;2023-07-13T15:31:29;26.40;46.90
9941;DHT22;5009;50.656;7.188;2023-07-13T15:33:57;26.40;46.30
9941;DHT22;5009;50.656;7.188;2023-07-13T15:36:23;26.40;46.20
9941;DHT22;5009;50.656;7.188;2023-07-13T15:38:52;26.40;45.80
9941;DHT22;5009;50.656;7.188;2023-07-13T15:41:24;26.40;45.60
9941;DHT22;5009;50.656;7.188;2023-07-13T15:43:51;26.40;45.60
9941;DHT22;5009;50.656;7.188;2023-07-13T15:46:21;26.40;45.50
9941;DHT22;5009;50.656;7.188;2023-07-13T15:48:49;26.30;45.40
9941;DHT22;5009;50.656;7.188;2023-07-13T15:51:34;26.30;45.60
9941;DHT22;5009;50.656;7.188;2023-07-13T15:54:02;26.20;45.80
9941;DHT22;5009;50.656;7.188;2023-07-13T15:56:36;26.10;46.20
9941;DHT22;5009;50.656;7.188;2023-07-13T15:59:03;26.10;46.50
9941;DHT22;5009;50.656;7.188;2023-07-13T16:01:30;26.00;46.90
9941;DHT22;5009;50.656;7.188;2023-07-13T16:03:56;26.00;46.60
9941;DHT22;5009;50.656;7.188;2023-07-13T16:08:48;25.90;46.70
9941;DHT22;5009;50.656;7.188;2023-07-13T16:11:27;25.90;46.70
9941;DHT22;5009;50.656;7.188;2023-07-13T16:13:53;25.80;46.40
9941;DHT22;5009;50.656;7.188;2023-07-13T16:16:27;25.80;46.50
9941;DHT22;5009;50.656;7.188;2023-07-13T16:18:54;25.80;47.00
9941;DHT22;5009;50.656;7.188;2023-07-13T16:21:22;25.70;47.10
9941;DHT22;5009;50.656;7.188;2023-07-13T16:23:49;25.70;47.70
9941;DHT22;5009;50.656;7.188;2023-07-13T16:29:16;25.70;47.80
9941;DHT22;5009;50.656;7.188;2023-07-13T16:32:05;25.70;47.70
9941;DHT22;5009;50.656;7.188;2023-07-13T16:34:33;25.70;47.30
9941;DHT22;5009;50.656;7.188;2023-07-13T16:37:03;25.60;47.40
9941;DHT22;5009;50.656;7.188;2023-07-13T16:39:36;25.60;47.50
9941;DHT22;5009;50.656;7.188;2023-07-13T16:42:02;25.50;47.30
9941;DHT22;5009;50.656;7.188;2023-07-13T16:44:29;25.50;47.60
9941;DHT22;5009;50.656;7.188;2023-07-13T16:46:56;25.50;47.40
9941;DHT22;5009;50.656;7.188;2023-07-13T16:49:30;25.40;47.20
9941;DHT22;5009;50.656;7.188;2023-07-13T16:51:57;25.40;47.30
9941;DHT22;5009;50.656;7.188;2023-07-13T16:54:31;25.40;47.50
9941;DHT22;5009;50.656;7.188;2023-07-13T16:56:58;25.30;47.50
9941;DHT22;5009;50.656;7.188;2023-07-13T16:59:30;25.30;47.70
9941;DHT22;5009;50.656;7.188;2023-07-13T17:01:58;25.20;47.80
9941;DHT22;5009;50.656;7.188;2023-07-13T17:04:25;25.00;47.90
9941;DHT22;5009;50.656;7.188;2023-07-13T17:06:53;24.90;48.30
9941;DHT22;5009;50.656;7.188;2023-07-13T17:09:20;24.80;48.70
9941;DHT22;5009;50.656;7.188;2023-07-13T17:11:46;24.70;49.00
9941;DHT22;5009;50.656;7.188;2023-07-13T17:14:13;24.40;49.20
9941;DHT22;5009;50.656;7.188;2023-07-13T17:16:41;24.30;49.50
9941;DHT22;5009;50.656;7.188;2023-07-13T17:19:13;24.10;50.10
9941;DHT22;5009;50.656;7.188;2023-07-13T17:21:39;24.10;50.40
9941;DHT22;5009;50.656;7.188;2023-07-13T17:24:20;24.10;50.70
9941;DHT22;5009;50.656;7.188;2023-07-13T17:26:47;24.10;50.90
9941;DHT22;5009;50.656;7.188;2023-07-13T17:29:13;24.00;50.90
9941;DHT22;5009;50.656;7.188;2023-07-13T17:31:39;24.00;51.20
9941;DHT22;5009;50.656;7.188;2023-07-13T17:34:05;24.00;51.50
9941;DHT22;5009;50.656;7.188;2023-07-13T17:36:33;24.00;51.80
9941;DHT22;5009;50.656;7.188;2023-07-13T17:38:59;24.00;51.70
9941;DHT22;5009;50.656;7.188;2023-07-13T17:41:25;24.00;51.80
9941;DHT22;5009;50.656;7.188;2023-07-13T17:43:52;24.00;51.70
9941;DHT22;5009;50.656;7.188;2023-07-13T17:46:23;24.00;51.90
9941;DHT22;5009;50.656;7.188;2023-07-13T17:48:50;23.90;52.10
9941;DHT22;5009;50.656;7.188;2023-07-13T17:51:18;23.90;52.20
9941;DHT22;5009;50.656;7.188;2023-07-13T17:53:45;23.90;52.50
9941;DHT22;5009;50.656;7.188;2023-07-13T17:56:12;24.00;52.80
9941;DHT22;5009;50.656;7.188;2023-07-13T17:58:38;23.90;52.80
9941;DHT22;5009;50.656;7.188;2023-07-13T18:01:07;23.80;52.90
9941;DHT22;5009;50.656;7.188;2023-07-13T18:03:38;23.80;53.10
9941;DHT22;5009;50.656;7.188;2023-07-13T18:06:12;23.80;53.40
9941;DHT22;5009;50.656;7.188;2023-07-13T18:08:49;23.80;53.50
9941;DHT22;5009;50.656;7.188;2023-07-13T18:11:14;23.80;54.00
9941;DHT22;5009;50.656;7.188;2023-07-13T18:13:40;23.80;54.10
9941;DHT22;5009;50.656;7.188;2023-07-13T18:16:14;23.70;54.20
9941;DHT22;5009;50.656;7.188;2023-07-13T18:18:41;23.70;54.60
9941;DHT22;5009;50.656;7.188;2023-07-13T18:21:09;23.60;54.90
9941;DHT22;5009;50.656;7.188;2023-07-13T18:23:35;23.60;55.60
9941;DHT22;5009;50.656;7.188;2023-07-13T18:26:01;23.60;55.40
9941;DHT22;5009;50.656;7.188;2023-07-13T18:28:27;23.60;55.20
9941;DHT22;5009;50.656;7.188;2023-07-13T18:30:55;23.50;55.30
9941;DHT22;5009;50.656;7.188;2023-07-13T18:33:24;23.50;55.30
9941;DHT22;5009;50.656;7.188;2023-07-13T18:35:50;23.40;55.30
9941;DHT22;5009;50.656;7.188;2023-07-13T18:38:19;23.30;55.40
9941;DHT22;5009;50.656;7.188;2023-07-13T18:40:46;23.30;55.50
9941;DHT22;5009;50.656;7.188;2023-07-13T18:43:12;23.30;55.70
9941;DHT22;5009;50.656;7.188;2023-07-13T18:45:38;23.20;55.80
9941;DHT22;5009;50.656;7.188;2023-07-13T18:48:04;23.20;56.10
9941;DHT22;5009;50.656;7.188;2023-07-13T18:50:32;23.10;56.20
9941;DHT22;5009;50.656;7.188;2023-07-13T18:52:58;23.10;56.40
9941;DHT22;5009;50.656;7.188;2023-07-13T18:55:25;23.00;56.90
9941;DHT22;5009;50.656;7.188;2023-07-13T18:57:51;23.00;57.50
9941;DHT22;5009;50.656;7.188;2023-07-13T19:00:22;23.00;58.10
9941;DHT22;5009;50.656;7.188;2023-07-13T19:02:48;22.90;58.50
9941;DHT22;5009;50.656;7.188;2023-07-13T19:05:16;22.90;59.70
9941;DHT22;5009;50.656;7.188;2023-07-13T19:07:43;22.90;60.90
9941;DHT22;5009;50.656;7.188;2023-07-13T19:10:16;22.80;62.70
9941;DHT22;5009;50.656;7.188;2023-07-13T19:12:48;22.80;63.90
9941;DHT22;5009;50.656;7.188;2023-07-13T19:15:20;22.70;63.80
9941;DHT22;5009;50.656;7.188;2023-07-13T19:17:48;22.70;64.10
9941;DHT22;5009;50.656;7.188;2023-07-13T19:20:14;22.60;64.40
9941;DHT22;5009;50.656;7.188;2023-07-13T19:22:50;22.60;64.60
9941;DHT22;5009;50.656;7.188;2023-07-13T19:25:18;22.50;65.60
9941;DHT22;5009;50.656;7.188;2023-07-13T19:27:46;22.50;66.40
9941;DHT22;5009;50.656;7.188;2023-07-13T19:30:13;22.40;67.00
9941;DHT22;5009;50.656;7.188;2023-07-13T19:32:40;22.40;67.90
9941;DHT22;5009;50.656;7.188;2023-07-13T19:35:06;22.30;68.40
9941;DHT22;5009;50.656;7.188;2023-07-13T19:37:34;22.30;69.00
9941;DHT22;5009;50.656;7.188;2023-07-13T19:40:10;22.30;69.70
9941;DHT22;5009;50.656;7.188;2023-07-13T19:42:39;22.20;70.80
9941;DHT22;5009;50.656;7.188;2023-07-13T19:45:07;22.20;71.40
9941;DHT22;5009;50.656;7.188;2023-07-13T19:47:38;22.20;72.60
9941;DHT22;5009;50.656;7.188;2023-07-13T19:50:04;22.10;73.20
9941;DHT22;5009;50.656;7.188;2023-07-13T19:52:30;22.00;74.00
9941;DHT22;5009;50.656;7.188;2023-07-13T19:54:57;22.00;74.40
9941;DHT22;5009;50.656;7.188;2023-07-13T19:57:25;22.00;75.40
9941;DHT22;5009;50.656;7.188;2023-07-13T19:59:52;22.00;76.00
9941;DHT22;5009;50.656;7.188;2023-07-13T20:02:20;21.90;75.90
9941;DHT22;5009;50.656;7.188;2023-07-13T20:04:46;21.90;77.20
9941;DHT22;5009;50.656;7.188;2023-07-13T20:07:22;21.90;78.10
9941;DHT22;5009;50.656;7.188;2023-07-13T20:09:50;21.80;79.00
9941;DHT22;5009;50.656;7.188;2023-07-13T20:12:21;21.70;79.60
9941;DHT22;5009;50.656;7.188;2023-07-13T20:14:47;21.70;80.10
9941;DHT22;5009;50.656;7.188;2023-07-13T20:17:25;21.60;80.30
9941;DHT22;5009;50.656;7.188;2023-07-13T20:19:53;21.60;81.40
9941;DHT22;5009;50.656;7.188;2023-07-13T20:22:19;21.50;82.10
9941;DHT22;5009;50.656;7.188;2023-07-13T20:24:44;21.40;82.80
9941;DHT22;5009;50.656;7.188;2023-07-13T20:27:10;21.40;83.90
9941;DHT22;5009;50.656;7.188;2023-07-13T20:29:35;21.20;85.10
9941;DHT22;5009;50.656;7.188;2023-07-13T20:32:01;21.20;86.50
9941;DHT22;5009;50.656;7.188;2023-07-13T20:34:30;21.10;88.10
9941;DHT22;5009;50.656;7.188;2023-07-13T20:36:57;21.00;89.30
9941;DHT22;5009;50.656;7.188;2023-07-13T20:39:25;20.90;90.50
9941;DHT22;5009;50.656;7.188;2023-07-13T20:41:50;20.80;91.40
9941;DHT22;5009;50.656;7.188;2023-07-13T20:44:17;20.70;91.90
9941;DHT22;5009;50.656;7.188;2023-07-13T20:46:43;20.60;92.60
9941;DHT22;5009;50.656;7.188;2023-07-13T20:49:10;20.50;93.00
9941;DHT22;5009;50.656;7.188;2023-07-13T20:51:37;20.40;93.60
9941;DHT22;5009;50.656;7.188;2023-07-13T20:54:04;20.40;94.00
9941;DHT22;5009;50.656;7.188;2023-07-13T20:56:30;20.30;94.10